Flight Track Log - Related Links

Times and Time Zones

All times are in EST time to prevent confusion due to time zone crossing. See the EJA913 flight status page for this flight to view local times or setup timezone preferences in your user account.

Time Position Orientation Groundspeed Altitude Reporting Facility
EST Latitude Longitude Course Direction KTS MPH feet Rate Location/Type
Mon 03:18:51 PM 42.8672 -72.2983 272° West 509 586 3,400  Level Boston Center
Mon 03:19:51 PM 42.8694 -72.3864 275° West 363 418 7,400 3,800 Climbing Boston Center
Mon 03:20:51 PM 42.8756 -72.4797 283° West 295 339 11,000 3,300 Climbing Boston Center
Mon 03:21:51 PM 42.8922 -72.5817 279° West 281 323 14,000 3,400 Climbing Boston Center
Mon 03:22:51 PM 42.9044 -72.6894 282° West 281 323 17,800 3,450 Climbing Boston Center
Mon 03:23:51 PM 42.9228 -72.8114 280° West 286 329 20,900 2,550 Climbing Boston Center
Mon 03:24:51 PM 42.9392 -72.9336 280° West 307 353 22,900 2,150 Climbing Boston Center
Mon 03:25:51 PM 42.9553 -73.0556 281° West 327 376 25,200 2,100 Climbing Boston Center
Mon 03:26:51 PM 42.9731 -73.1836 280° West 337 388 27,100 1,950 Climbing Boston Center
Mon 03:27:51 PM 42.9889 -73.3086 257° West 337 388 29,100 1,750 Climbing Boston Center
Mon 03:28:51 PM 42.9672 -73.4331 248° West 337 388 30,600 1,950 Climbing Boston Center
Mon 03:29:51 PM 42.9347 -73.5433 248° West 348 400 33,000 2,050 Climbing Boston Center
Mon 03:30:51 PM 42.8958 -73.6758 247° West 348 400 34,700 1,350 Climbing Boston Center
Mon 03:31:51 PM 42.8569 -73.8025 249° West 357 411 35,700 950 Climbing Boston Center
Mon 03:32:51 PM 42.8222 -73.9261 248° West 374 430 36,600 950 Climbing Boston Center
Mon 03:33:51 PM 42.7828 -74.0583 246° West 379 436 37,600 1,000 Climbing Boston Center
Mon 03:34:51 PM 42.7392 -74.1928 248° West 379 436 38,600 1,050 Climbing Boston Center
Mon 03:35:51 PM 42.6950 -74.3383 247° West 391 450 39,700 700 Climbing Boston Center
Mon 03:36:51 PM 42.6553 -74.4644 248° West 391 450 40,000 200 Climbing Boston Center
Mon 03:37:51 PM 42.6086 -74.6208 247° West 403 464 40,100  Climbing Boston Center
Mon 03:38:51 PM 42.5664 -74.7547 247° West 421 484 40,000 -50 Descending Boston Center
Mon 03:39:51 PM 42.5150 -74.9217 247° West 437 503 40,000  Level Boston Center
Mon 03:40:51 PM 42.4681 -75.0689 246° West 437 503 40,000 150 Level Boston Center
Mon 03:41:51 PM 42.4208 -75.2133 248° West 431 496 40,300 384 Climbing Boston Center
Mon 03:43:43 PM 42.3400 -75.4808 245° Southwest 431 496 41,100 244 Climbing New York Center
Mon 03:44:43 PM 42.2950 -75.6122 246° West 431 496 41,000 -50 Descending New York Center
Mon 03:45:44 PM 42.2453 -75.7597 248° West 437 503 41,000  Level New York Center
Mon 03:46:41 PM 42.1992 -75.9131 245° Southwest 442 509 41,000  Level New York Center
Mon 03:47:41 PM 42.1492 -76.0600 246° West 442 509 41,000  Level New York Center
Mon 03:48:41 PM 42.1008 -76.2072 246° West 442 509 41,000  Level New York Center
Mon 03:49:42 PM 42.0522 -76.3567 246° West 437 503 41,000  Level New York Center
Mon 03:50:42 PM 42.0011 -76.5144 246° West 432 497 41,000  Level New York Center
Mon 03:51:43 PM 41.9525 -76.6581 246° West 427 491 41,000  Level New York Center
Mon 03:52:43 PM 41.9058 -76.7989 246° West 432 497 41,000  Level New York Center
Mon 03:53:41 PM 41.8567 -76.9447 246° West 432 497 41,000  Level New York Center
Mon 03:55:39 PM 41.7689 -77.2142 245° Southwest 418 481 41,000  Level Cleveland Center
Mon 03:56:39 PM 41.7189 -77.3589 245° Southwest 423 487 41,000  Level Cleveland Center
Mon 03:57:39 PM 41.6628 -77.5172 246° West 428 493 41,000  Level Cleveland Center
Mon 03:58:39 PM 41.6200 -77.6442 246° West 428 493 41,000  Level Cleveland Center
Mon 03:59:39 PM 41.5678 -77.8022 247° West 433 498 41,000  Level Cleveland Center
Mon 04:00:39 PM 41.5211 -77.9456 248° West 433 498 41,000  Level Cleveland Center
Mon 04:01:39 PM 41.4764 -78.0914 249° West 427 491 41,000  Level Cleveland Center
Mon 04:02:39 PM 41.4336 -78.2372 249° West 422 486 41,000  Level Cleveland Center
Mon 04:03:39 PM 41.3925 -78.3772 248° West 422 486 41,000  Level Cleveland Center
Mon 04:04:39 PM 41.3533 -78.5086 248° West 422 486 41,000  Level Cleveland Center
Mon 04:05:39 PM 41.3100 -78.6508 250° West 422 486 41,000  Level Cleveland Center
Mon 04:06:39 PM 41.2706 -78.7983 257° West 417 480 41,000  Level Cleveland Center
Mon 04:07:39 PM 41.2419 -78.9622 259° West 417 480 41,000  Level Cleveland Center
Mon 04:08:39 PM 41.2208 -79.1008 258° West 422 486 41,000  Level Cleveland Center
Mon 04:09:39 PM 41.1975 -79.2503 257° West 422 486 41,000  Level Cleveland Center
Mon 04:10:39 PM 41.1722 -79.3997 258° West 422 486 41,000  Level Cleveland Center
Mon 04:11:39 PM 41.1486 -79.5519 258° West 422 486 41,000  Level Cleveland Center
Mon 04:12:39 PM 41.1247 -79.7011 258° West 422 486 41,000  Level Cleveland Center
Mon 04:13:39 PM 41.1008 -79.8503 257° West 422 486 41,000  Level Cleveland Center
Mon 04:14:39 PM 41.0747 -79.9992 258° West 417 480 41,000  Level Cleveland Center
Mon 04:15:39 PM 41.0503 -80.1481 258° West 417 480 41,000  Level Cleveland Center
Mon 04:16:39 PM 41.0258 -80.2942 257° West 417 480 41,000  Level Cleveland Center
Mon 04:17:39 PM 41.0011 -80.4400 256° West 417 480 41,000  Level Cleveland Center
Mon 04:18:39 PM 40.9739 -80.5858 258° West 412 474 41,000  Level Cleveland Center
Mon 04:19:39 PM 40.9508 -80.7317 256° West 412 474 41,000  Level Cleveland Center
Mon 04:20:39 PM 40.9236 -80.8772 257° West 412 474 41,000  Level Cleveland Center
Mon 04:21:39 PM 40.8981 -81.0281 256° West 412 474 41,000  Level Cleveland Center
Mon 04:22:39 PM 40.8681 -81.1900 256° West 412 474 41,000  Level Cleveland Center
Mon 04:23:39 PM 40.8403 -81.3350 257° West 412 474 41,000  Level Cleveland Center
Mon 04:24:39 PM 40.8142 -81.4803 257° West 412 474 41,000  Level Cleveland Center
Mon 04:25:39 PM 40.7878 -81.6253 258° West 412 474 41,000  Level Cleveland Center
Mon 04:26:39 PM 40.7636 -81.7700 256° West 412 474 41,000  Level Cleveland Center
Mon 04:27:39 PM 40.7347 -81.9175 256° West 412 474 41,000  Level Cleveland Center
Mon 04:30:07 PM 40.6711 -82.2600 255° West 403 464 41,000  Level Indianapolis Center
Mon 04:31:07 PM 40.6414 -82.4083 256° West 413 475 41,000  Level Indianapolis Center
Mon 04:32:07 PM 40.6117 -82.5700 256° West 413 475 41,000  Level Indianapolis Center
Mon 04:33:07 PM 40.5836 -82.7153 256° West 413 475 41,000  Level Indianapolis Center
Mon 04:34:07 PM 40.5553 -82.8603 256° West 413 475 41,000  Level Indianapolis Center
Mon 04:35:07 PM 40.5269 -83.0081 257° West 413 475 41,000  Level Indianapolis Center
Mon 04:36:07 PM 40.5006 -83.1558 255° West 413 475 41,000  Level Indianapolis Center
Mon 04:37:07 PM 40.4717 -83.3006 255° West 413 475 41,000  Level Indianapolis Center
Mon 04:38:07 PM 40.4406 -83.4481 256° West 413 475 41,000  Level Indianapolis Center
Mon 04:39:07 PM 40.4136 -83.5897 255° West 413 475 41,000  Level Indianapolis Center
Mon 04:40:07 PM 40.3844 -83.7342 254° West 413 475 41,000  Level Indianapolis Center
Mon 04:41:07 PM 40.3528 -83.8811 255° West 413 475 41,000  Level Indianapolis Center
Mon 04:42:07 PM 40.3231 -84.0253 246° West 413 475 41,000  Level Indianapolis Center
Mon 04:43:07 PM 40.2744 -84.1664 243° Southwest 425 489 41,000  Level Indianapolis Center
Mon 04:44:07 PM 40.2194 -84.3047 244° Southwest 432 497 41,000  Level Indianapolis Center
Mon 04:45:08 PM 40.1728 -84.4292 243° Southwest 427 491 41,000  Level Indianapolis Center
Mon 04:46:07 PM 40.1197 -84.5642 243° Southwest 427 491 41,000  Level Indianapolis Center
Mon 04:47:07 PM 40.0664 -84.6989 244° Southwest 427 491 41,000  Level Indianapolis Center
Mon 04:48:07 PM 40.0128 -84.8392 241° Southwest 427 491 41,000  Level Indianapolis Center
Mon 04:49:07 PM 39.9572 -84.9681 243° Southwest 427 491 41,000  Level Indianapolis Center
Mon 04:50:07 PM 39.9033 -85.1050 244° Southwest 427 491 41,000  Level Indianapolis Center
Mon 04:51:07 PM 39.8514 -85.2417 241° Southwest 427 491 41,000  Level Indianapolis Center
Mon 04:52:07 PM 39.7953 -85.3756 243° Southwest 427 491 41,000  Level Indianapolis Center
Mon 04:53:07 PM 39.7364 -85.5253 242° Southwest 427 491 41,000  Level Indianapolis Center
Mon 04:54:07 PM 39.6800 -85.6611 241° Southwest 427 491 41,000  Level Indianapolis Center
Mon 04:55:07 PM 39.6233 -85.7944 242° Southwest 427 491 41,000  Level Indianapolis Center
Mon 04:56:07 PM 39.5686 -85.9300 242° Southwest 427 491 41,000  Level Indianapolis Center
Mon 04:57:07 PM 39.5114 -86.0681 241° Southwest 433 498 41,000  Level Indianapolis Center
Mon 04:58:07 PM 39.4544 -86.2006 242° Southwest 428 493 41,000  Level Indianapolis Center
Mon 04:59:07 PM 39.4036 -86.3222 243° Southwest 428 493 41,000  Level Indianapolis Center
Mon 05:00:07 PM 39.3503 -86.4572 241° Southwest 428 493 41,000  Level Indianapolis Center
Mon 05:01:07 PM 39.2928 -86.5917 242° Southwest 434 499 41,000  Level Indianapolis Center
Mon 05:02:07 PM 39.2369 -86.7261 241° Southwest 428 493 41,000  Level Indianapolis Center
Mon 05:03:07 PM 39.1792 -86.8600 244° Southwest 428 493 41,000  Level Indianapolis Center
Mon 05:04:07 PM 39.1228 -87.0072 240° Southwest 428 493 41,000  Level Indianapolis Center
Mon 05:05:07 PM 39.0625 -87.1408 242° Southwest 428 493 41,000  Level Indianapolis Center
Mon 05:06:07 PM 39.0061 -87.2769 241° Southwest 428 493 41,000  Level Indianapolis Center
Mon 05:07:07 PM 38.9478 -87.4103 241° Southwest 428 493 41,000  Level Indianapolis Center
Mon 05:09:00 PM 38.8444 -87.6522 241° Southwest 426 490 41,000  Level Kansas City Center
Mon 05:10:00 PM 38.7856 -87.7883 241° Southwest 431 496 41,000  Level Kansas City Center
Mon 05:11:00 PM 38.7264 -87.9242 240° Southwest 436 502 41,000  Level Kansas City Center
Mon 05:12:00 PM 38.6667 -88.0544 242° Southwest 436 502 41,000  Level Kansas City Center
Mon 05:13:00 PM 38.6094 -88.1897 241° Southwest 436 502 41,000  Level Kansas City Center
Mon 05:14:00 PM 38.5497 -88.3250 240° Southwest 436 502 41,000  Level Kansas City Center
Mon 05:15:00 PM 38.4878 -88.4603 240° Southwest 436 502 41,000  Level Kansas City Center
Mon 05:16:00 PM 38.4297 -88.5894 240° Southwest 436 502 41,000  Level Kansas City Center
Mon 05:17:00 PM 38.3694 -88.7217 240° Southwest 436 502 41,000  Level Kansas City Center
Mon 05:18:00 PM 38.3092 -88.8558 243° Southwest 436 502 41,000  Level Kansas City Center
Mon 05:19:00 PM 38.2550 -88.9922 249° West 436 502 41,000  Level Kansas City Center
Mon 05:20:00 PM 38.2078 -89.1467 250° West 431 496 41,000  Level Kansas City Center
Mon 05:21:00 PM 38.1717 -89.2733 250° West 431 496 41,000  Level Kansas City Center
Mon 05:22:00 PM 38.1264 -89.4322 250° West 431 496 41,000  Level Kansas City Center
Mon 05:23:00 PM 38.0900 -89.5589 250° West 437 503 41,000  Level Kansas City Center
Mon 05:24:00 PM 38.0442 -89.7147 249° West 437 503 41,000  Level Kansas City Center
Mon 05:25:00 PM 38.0056 -89.8439 249° West 437 503 41,000  Level Kansas City Center
Mon 05:26:00 PM 37.9594 -89.9994 249° West 437 503 41,000  Level Kansas City Center
Mon 05:27:00 PM 37.9203 -90.1256 250° West 437 503 41,000 50 Level Kansas City Center
Mon 05:28:00 PM 37.8739 -90.2833 250° West 442 509 41,100  Climbing Kansas City Center
Mon 05:29:00 PM 37.8328 -90.4225 249° West 442 509 41,000 -50 Descending Kansas City Center
Mon 05:30:00 PM 37.7894 -90.5617 249° West 436 502 41,000  Level Kansas City Center
Mon 05:31:00 PM 37.7461 -90.7031 250° West 430 495 41,000  Level Kansas City Center
Mon 05:32:00 PM 37.7047 -90.8442 247° West 435 501 41,000  Level Kansas City Center
Mon 05:33:00 PM 37.6586 -90.9828 249° West 436 502 41,000  Level Kansas City Center
Mon 05:34:00 PM 37.6147 -91.1239 249° West 436 502 41,000  Level Kansas City Center
Mon 05:35:00 PM 37.5708 -91.2647 248° West 436 502 41,000 -350 Level Kansas City Center
Mon 05:36:00 PM 37.5264 -91.4028 250° West 436 502 40,300 -850 Descending Kansas City Center
Mon 05:37:00 PM 37.4861 -91.5433 248° West 442 509 39,300 -950 Descending Kansas City Center
Mon 05:38:00 PM 37.4456 -91.6678 248° West 437 503 38,400 -1,350 Descending Kansas City Center
Mon 05:39:00 PM 37.3986 -91.8108 249° West 437 503 36,600 -2,150 Descending Kansas City Center
Mon 05:40:00 PM 37.3558 -91.9481 248° West 437 503 34,100 2,200 Descending Kansas City Center
Mon 05:41:00 PM 37.3108 -92.0853 248° West 437 503 41,000 -2,550 Climbing Kansas City Center
Mon 05:42:00 PM 37.2656 -92.2278 247° West 437 503 29,000 -7,250 Descending Kansas City Center
Mon 05:43:00 PM 37.2181 -92.3700 248° West 437 503 26,500 -2,500 Descending Kansas City Center
Mon 05:44:00 PM 37.1725 -92.5094 249° West 437 503 24,000 -2,550 Descending Kansas City Center
Mon 05:45:00 PM 37.1311 -92.6461 247° West 437 503 21,400 -2,550 Descending Kansas City Center
Mon 05:46:00 PM 37.0872 -92.7772 248° West 427 491 18,900 -2,300 Descending Kansas City Center
Mon 05:47:00 PM 37.0450 -92.9058 248° West 411 473 16,800 -1,450 Descending Kansas City Center
Mon 05:48:00 PM 37.0031 -93.0339 248° West 411 473 16,000 -400 Descending Kansas City Center
Mon 05:49:00 PM 36.9606 -93.1622 243° Southwest 405 466 16,000 -550 Level Kansas City Center
Mon 05:50:00 PM 36.9119 -93.2825 228° Southwest 400 460 14,900 -1,750 Descending Kansas City Center
Mon 05:51:00 PM 36.8317 -93.3928 225° Southwest 395 455 12,500 -2,100 Descending Kansas City Center
Mon 05:52:00 PM 36.7553 -93.4872 225° Southwest 395 455 10,700 -1,250 Descending Kansas City Center
Mon 05:53:00 PM 36.6808 -93.5814 226° Southwest 390 449 10,000 -350 Descending Kansas City Center
Mon 05:54:00 PM 36.6086 -93.6756 228° Southwest 385 443 10,000  Level Kansas City Center
Mon 05:55:00 PM 36.5508 -93.7564 227° Southwest 358 412 10,000 -700 Level Kansas City Center
Mon 05:56:00 PM 36.5072 -93.8136 228° Southwest 289 333 8,600 -1,650 Descending Kansas City Center
Mon 05:57:00 PM 36.4597 -93.8786 229° Southwest 282 325 6,700 -1,500 Descending Kansas City Center
Mon 05:58:00 PM 36.4119 -93.9461 229° Southwest 269 310 5,600 -1,300 Descending Kansas City Center
Mon 05:59:00 PM 36.3664 -94.0108 229° Southwest 263 303 4,100 -800 Descending Kansas City Center
Mon 06:00:00 PM 36.3167 -94.0808 231° Southwest 263 303 4,000 -100 Descending Kansas City Center
Mon 06:01:00 PM 36.2689 -94.1531 228° Southwest 268 308 3,900 -100 Descending Kansas City Center
Mon 06:02:00 PM 36.2211 -94.2178 228° Southwest 268 308 3,800 -100 Descending Kansas City Center

Login

Don't have an account? Register now (free) for customized features, flight alerts, and more!